CheckWX is a tool to help pilots better visualize weather data.  It is not intended as a substitute for an official pre-flight weather briefing.

00:06:45 UTC

LFMO METAR
Orange-Caritat (BA 115) Air Base Airport
Orange/Caritat, France
Current

37 mins ago

LFMO 052330Z AUTO 34002KT 3300 BR NSC 01/01 Q1024 NOSIG
Observed
Dec-5 @ 23:30 UTC
Wind
  • 340° at 2 KTS
Visibility
3,300 meters
Flight Rules
IFR
Conditions
Mist
Cloud Levels
  • Clear skies
Temperature
C / 34°F
Dewpoint
C / 34°F
Humidity
100%
Altimeter
30.24" Hg
Pressure
1023.92 hPa
Previous

1 hour ago

LFMO 052300Z AUTO 35001KT 3800 BR NSC 01/00 Q1024 NOSIG
Observed
Dec-5 @ 23:00 UTC
Wind
  • 350° at 1 KTS
Visibility
3,800 meters
Flight Rules
IFR
Conditions
Mist
Cloud Levels
  • Clear skies
Temperature
C / 34°F
Dewpoint
C / 32°F
Humidity
93%
Altimeter
30.24" Hg
Pressure
1023.92 hPa
Previous

2 hours ago

LFMO 052230Z AUTO 13004KT 3300 BR NSC 01/00 Q1024 NOSIG
Observed
Dec-5 @ 22:30 UTC
Wind
  • 130° at 4 KTS
Visibility
3,300 meters
Flight Rules
IFR
Conditions
Mist
Cloud Levels
  • Clear skies
Temperature
C / 34°F
Dewpoint
C / 32°F
Humidity
93%
Altimeter
30.24" Hg
Pressure
1023.92 hPa